< < Back
Terminal Aerodrome Forecast


Current Version              Previous Versions:   1  2  3  4  5  6  7  8  9  

Terminal Aerodrome Forecast

443
FTUS42 KJAX 271720
TAFGNV
TAF
KGNV 271720Z 2718/2818 10010G15KT P6SM BKN040 BKN080
     FM280100 04002KT P6SM SCT250
     FM281500 05008KT P6SM BKN035 BKN070=

Latest METAR

033
SAUS70 KWBC 280200 RRL
MTRGNV
METAR KGNV 280153Z 09005KT 10SM CLR 23/18 A3003 RMK AO2 SLP166
T02280178


USA.gov is the U.S. government's official web portal to all federal, state and local government web resources and services.